sensor_id;sensor_type;location;lat;lon;timestamp;pressure;altitude;pressure_sealevel;temperature;humidity
52855;BME280;38719;51.418;7.286;2023-04-08T00:01:51;100374.22;;;6.66;81.91
52855;BME280;38719;51.418;7.286;2023-04-08T00:04:20;100374.34;;;6.59;82.04
52855;BME280;38719;51.418;7.286;2023-04-08T00:06:48;100366.41;;;6.61;82.14
52855;BME280;38719;51.418;7.286;2023-04-08T00:09:15;100374.13;;;6.70;82.12
52855;BME280;38719;51.418;7.286;2023-04-08T00:11:43;100371.56;;;6.66;82.51
52855;BME280;38719;51.418;7.286;2023-04-08T00:14:10;100375.44;;;6.51;82.13
52855;BME280;38719;51.418;7.286;2023-04-08T00:16:38;100376.09;;;6.62;82.16
52855;BME280;38719;51.418;7.286;2023-04-08T00:19:05;100371.84;;;6.55;81.99
52855;BME280;38719;51.418;7.286;2023-04-08T00:21:34;100375.28;;;6.58;82.91
52855;BME280;38719;51.418;7.286;2023-04-08T00:24:02;100374.50;;;6.53;81.71
52855;BME280;38719;51.418;7.286;2023-04-08T00:26:29;100377.13;;;6.55;81.34
52855;BME280;38719;51.418;7.286;2023-04-08T00:28:57;100376.34;;;6.89;81.98
52855;BME280;38719;51.418;7.286;2023-04-08T00:31:24;100371.66;;;7.02;81.66
52855;BME280;38719;51.418;7.286;2023-04-08T00:33:52;100379.31;;;6.75;81.94
52855;BME280;38719;51.418;7.286;2023-04-08T00:36:20;100391.66;;;6.76;82.78
52855;BME280;38719;51.418;7.286;2023-04-08T00:38:49;100389.16;;;6.70;81.91
52855;BME280;38719;51.418;7.286;2023-04-08T00:41:17;100388.22;;;6.72;81.40
52855;BME280;38719;51.418;7.286;2023-04-08T00:43:44;100388.22;;;6.72;81.46
52855;BME280;38719;51.418;7.286;2023-04-08T00:46:12;100391.72;;;6.73;81.52
52855;BME280;38719;51.418;7.286;2023-04-08T00:48:39;100395.09;;;6.37;81.69
52855;BME280;38719;51.418;7.286;2023-04-08T00:51:07;100387.16;;;6.39;80.69
52855;BME280;38719;51.418;7.286;2023-04-08T00:53:35;100384.72;;;6.28;80.70
52855;BME280;38719;51.418;7.286;2023-04-08T00:56:04;100382.97;;;6.27;80.74
52855;BME280;38719;51.418;7.286;2023-04-08T00:58:31;100393.53;;;6.28;79.95
52855;BME280;38719;51.418;7.286;2023-04-08T01:01:02;100390.19;;;6.19;80.55
52855;BME280;38719;51.418;7.286;2023-04-08T01:03:41;100387.59;;;6.17;81.42
52855;BME280;38719;51.418;7.286;2023-04-08T01:06:15;100392.59;;;6.31;81.61
52855;BME280;38719;51.418;7.286;2023-04-08T01:08:46;100401.31;;;6.36;81.56
52855;BME280;38719;51.418;7.286;2023-04-08T01:11:17;100397.03;;;6.31;81.46
52855;BME280;38719;51.418;7.286;2023-04-08T01:13:48;100397.50;;;6.51;81.26
52855;BME280;38719;51.418;7.286;2023-04-08T01:16:17;100392.28;;;6.87;80.54
52855;BME280;38719;51.418;7.286;2023-04-08T01:18:46;100395.94;;;6.82;80.41
52855;BME280;38719;51.418;7.286;2023-04-08T01:21:17;100395.03;;;6.83;79.51
52855;BME280;38719;51.418;7.286;2023-04-08T01:23:53;100398.22;;;6.58;79.72
52855;BME280;38719;51.418;7.286;2023-04-08T01:26:27;100393.44;;;6.33;80.25
52855;BME280;38719;51.418;7.286;2023-04-08T01:28:57;100395.22;;;6.31;80.58
52855;BME280;38719;51.418;7.286;2023-04-08T01:31:25;100400.88;;;6.12;80.16
52855;BME280;38719;51.418;7.286;2023-04-08T01:33:54;100404.53;;;6.07;79.80
52855;BME280;38719;51.418;7.286;2023-04-08T01:36:23;100398.53;;;5.97;80.40
52855;BME280;38719;51.418;7.286;2023-04-08T01:38:52;100406.50;;;5.94;80.90
52855;BME280;38719;51.418;7.286;2023-04-08T01:41:20;100410.00;;;5.96;80.94
52855;BME280;38719;51.418;7.286;2023-04-08T01:43:49;100406.47;;;5.97;82.54
52855;BME280;38719;51.418;7.286;2023-04-08T01:46:19;100408.00;;;6.10;82.77
52855;BME280;38719;51.418;7.286;2023-04-08T01:48:47;100408.94;;;6.08;82.17
52855;BME280;38719;51.418;7.286;2023-04-08T01:51:15;100398.44;;;6.03;83.32
52855;BME280;38719;51.418;7.286;2023-04-08T01:53:43;100399.31;;;6.04;83.74
52855;BME280;38719;51.418;7.286;2023-04-08T01:56:12;100410.59;;;6.12;83.75
52855;BME280;38719;51.418;7.286;2023-04-08T01:58:42;100412.28;;;6.16;83.31
52855;BME280;38719;51.418;7.286;2023-04-08T02:01:16;100402.03;;;6.44;83.39
52855;BME280;38719;51.418;7.286;2023-04-08T02:03:45;100399.22;;;6.52;82.21
52855;BME280;38719;51.418;7.286;2023-04-08T02:06:13;100401.88;;;6.51;81.90
52855;BME280;38719;51.418;7.286;2023-04-08T02:08:41;100403.06;;;6.78;82.46
52855;BME280;38719;51.418;7.286;2023-04-08T02:11:08;100399.97;;;6.59;81.46
52855;BME280;38719;51.418;7.286;2023-04-08T02:13:36;100406.97;;;6.61;81.37
52855;BME280;38719;51.418;7.286;2023-04-08T02:16:08;100398.09;;;6.64;81.76
52855;BME280;38719;51.418;7.286;2023-04-08T02:18:42;100391.31;;;6.91;82.47
52855;BME280;38719;51.418;7.286;2023-04-08T02:21:13;100402.56;;;7.01;81.15
52855;BME280;38719;51.418;7.286;2023-04-08T02:23:45;100398.06;;;7.05;81.39
52855;BME280;38719;51.418;7.286;2023-04-08T02:26:16;100400.41;;;7.17;80.16
52855;BME280;38719;51.418;7.286;2023-04-08T02:28:45;100401.16;;;7.22;80.33
52855;BME280;38719;51.418;7.286;2023-04-08T02:31:16;100398.38;;;7.29;78.85
52855;BME280;38719;51.418;7.286;2023-04-08T02:33:47;100407.56;;;7.14;78.80
52855;BME280;38719;51.418;7.286;2023-04-08T02:36:17;100415.31;;;6.84;79.19
52855;BME280;38719;51.418;7.286;2023-04-08T02:38:47;100401.88;;;6.93;79.24
52855;BME280;38719;51.418;7.286;2023-04-08T02:41:15;100411.97;;;7.15;79.36
52855;BME280;38719;51.418;7.286;2023-04-08T02:43:42;100410.59;;;6.98;78.73
52855;BME280;38719;51.418;7.286;2023-04-08T02:46:11;100415.94;;;6.95;79.09
52855;BME280;38719;51.418;7.286;2023-04-08T02:48:39;100419.78;;;6.80;79.97
52855;BME280;38719;51.418;7.286;2023-04-08T02:51:07;100417.13;;;6.39;80.40
52855;BME280;38719;51.418;7.286;2023-04-08T02:53:35;100421.84;;;6.23;80.65
52855;BME280;38719;51.418;7.286;2023-04-08T02:56:03;100421.22;;;6.10;81.31
52855;BME280;38719;51.418;7.286;2023-04-08T02:58:30;100423.63;;;6.23;81.17
52855;BME280;38719;51.418;7.286;2023-04-08T03:00:59;100427.75;;;5.89;81.57
52855;BME280;38719;51.418;7.286;2023-04-08T03:03:26;100419.63;;;6.02;82.37
52855;BME280;38719;51.418;7.286;2023-04-08T03:05:56;100418.13;;;6.34;81.99
52855;BME280;38719;51.418;7.286;2023-04-08T03:08:25;100423.06;;;6.51;80.13
52855;BME280;38719;51.418;7.286;2023-04-08T03:10:52;100425.06;;;6.39;79.43
52855;BME280;38719;51.418;7.286;2023-04-08T03:13:20;100424.06;;;6.45;79.75
52855;BME280;38719;51.418;7.286;2023-04-08T03:15:47;100423.72;;;6.18;79.79
52855;BME280;38719;51.418;7.286;2023-04-08T03:18:15;100432.00;;;5.98;80.21
52855;BME280;38719;51.418;7.286;2023-04-08T03:20:43;100426.09;;;5.84;82.44
52855;BME280;38719;51.418;7.286;2023-04-08T03:23:10;100422.69;;;6.25;82.94
52855;BME280;38719;51.418;7.286;2023-04-08T03:25:39;100425.69;;;6.52;79.79
52855;BME280;38719;51.418;7.286;2023-04-08T03:28:06;100428.34;;;6.51;80.22
52855;BME280;38719;51.418;7.286;2023-04-08T03:30:34;100432.63;;;6.58;79.24
52855;BME280;38719;51.418;7.286;2023-04-08T03:33:02;100435.47;;;6.49;79.24
52855;BME280;38719;51.418;7.286;2023-04-08T03:35:33;100440.56;;;6.58;79.83
52855;BME280;38719;51.418;7.286;2023-04-08T03:38:00;100435.84;;;6.28;79.10
52855;BME280;38719;51.418;7.286;2023-04-08T03:40:28;100437.00;;;6.13;81.06
52855;BME280;38719;51.418;7.286;2023-04-08T03:42:57;100435.63;;;6.39;81.85
52855;BME280;38719;51.418;7.286;2023-04-08T03:45:24;100430.78;;;6.61;80.53
52855;BME280;38719;51.418;7.286;2023-04-08T03:47:52;100423.81;;;6.56;79.37
52855;BME280;38719;51.418;7.286;2023-04-08T03:50:20;100428.72;;;6.32;79.01
52855;BME280;38719;51.418;7.286;2023-04-08T03:52:48;100433.88;;;6.38;79.11
52855;BME280;38719;51.418;7.286;2023-04-08T03:55:15;100431.84;;;6.53;78.88
52855;BME280;38719;51.418;7.286;2023-04-08T03:57:43;100432.84;;;6.47;79.16
52855;BME280;38719;51.418;7.286;2023-04-08T04:00:13;100428.59;;;6.38;77.94
52855;BME280;38719;51.418;7.286;2023-04-08T04:02:41;100431.84;;;6.53;78.22
52855;BME280;38719;51.418;7.286;2023-04-08T04:05:09;100429.78;;;6.23;77.52
52855;BME280;38719;51.418;7.286;2023-04-08T04:07:37;100432.78;;;6.05;78.10
52855;BME280;38719;51.418;7.286;2023-04-08T04:10:05;100435.69;;;5.88;79.14
52855;BME280;38719;51.418;7.286;2023-04-08T04:12:33;100439.47;;;5.74;79.63
52855;BME280;38719;51.418;7.286;2023-04-08T04:15:00;100433.34;;;5.72;80.03
52855;BME280;38719;51.418;7.286;2023-04-08T04:17:29;100433.13;;;5.85;80.52
52855;BME280;38719;51.418;7.286;2023-04-08T04:19:57;100435.25;;;6.12;80.13
52855;BME280;38719;51.418;7.286;2023-04-08T04:22:24;100440.28;;;5.76;79.81
52855;BME280;38719;51.418;7.286;2023-04-08T04:24:52;100439.50;;;5.71;80.62
52855;BME280;38719;51.418;7.286;2023-04-08T04:27:19;100448.44;;;5.65;81.06
52855;BME280;38719;51.418;7.286;2023-04-08T04:29:47;100451.31;;;5.50;83.25
52855;BME280;38719;51.418;7.286;2023-04-08T04:32:14;100450.25;;;5.62;82.49
52855;BME280;38719;51.418;7.286;2023-04-08T04:34:43;100446.41;;;5.80;82.42
52855;BME280;38719;51.418;7.286;2023-04-08T04:37:11;100462.34;;;5.77;81.72
52855;BME280;38719;51.418;7.286;2023-04-08T04:39:38;100451.72;;;5.78;82.52
52855;BME280;38719;51.418;7.286;2023-04-08T04:42:06;100459.13;;;6.09;81.67
52855;BME280;38719;51.418;7.286;2023-04-08T04:44:33;100455.78;;;5.98;80.61
52855;BME280;38719;51.418;7.286;2023-04-08T04:47:01;100456.66;;;6.02;81.55
52855;BME280;38719;51.418;7.286;2023-04-08T04:49:29;100459.69;;;6.27;81.47
52855;BME280;38719;51.418;7.286;2023-04-08T04:51:58;100460.47;;;6.32;80.08
52855;BME280;38719;51.418;7.286;2023-04-08T04:54:25;100468.16;;;6.46;80.76
52855;BME280;38719;51.418;7.286;2023-04-08T04:56:53;100465.75;;;6.32;79.82
52855;BME280;38719;51.418;7.286;2023-04-08T04:59:20;100467.50;;;6.33;79.93
52855;BME280;38719;51.418;7.286;2023-04-08T05:01:48;100464.00;;;6.31;79.63
52855;BME280;38719;51.418;7.286;2023-04-08T05:04:15;100472.72;;;6.38;80.16
52855;BME280;38719;51.418;7.286;2023-04-08T05:06:43;100466.88;;;6.20;79.84
52855;BME280;38719;51.418;7.286;2023-04-08T05:09:12;100463.06;;;6.35;80.47
52855;BME280;38719;51.418;7.286;2023-04-08T05:11:39;100467.09;;;6.55;79.89
52855;BME280;38719;51.418;7.286;2023-04-08T05:14:07;100469.06;;;6.43;78.81
52855;BME280;38719;51.418;7.286;2023-04-08T05:16:34;100475.13;;;6.03;79.24
52855;BME280;38719;51.418;7.286;2023-04-08T05:19:02;100463.75;;;5.96;80.15
52855;BME280;38719;51.418;7.286;2023-04-08T05:21:30;100474.91;;;6.16;80.81
52855;BME280;38719;51.418;7.286;2023-04-08T05:23:58;100470.41;;;6.19;79.75
52855;BME280;38719;51.418;7.286;2023-04-08T05:26:26;100476.38;;;6.31;80.59
52855;BME280;38719;51.418;7.286;2023-04-08T05:28:54;100475.31;;;6.39;79.72
52855;BME280;38719;51.418;7.286;2023-04-08T05:31:21;100486.41;;;6.60;81.04
52855;BME280;38719;51.418;7.286;2023-04-08T05:33:49;100482.16;;;6.51;81.28
52855;BME280;38719;51.418;7.286;2023-04-08T05:36:16;100487.38;;;6.54;80.38
52855;BME280;38719;51.418;7.286;2023-04-08T05:38:44;100485.53;;;6.58;80.66
52855;BME280;38719;51.418;7.286;2023-04-08T05:41:11;100492.34;;;6.71;80.03
52855;BME280;38719;51.418;7.286;2023-04-08T05:43:40;100492.66;;;6.98;80.23
52855;BME280;38719;51.418;7.286;2023-04-08T05:46:08;100499.25;;;6.78;79.72
52855;BME280;38719;51.418;7.286;2023-04-08T05:48:36;100502.50;;;6.91;79.69
52855;BME280;38719;51.418;7.286;2023-04-08T05:51:04;100491.09;;;6.88;79.99
52855;BME280;38719;51.418;7.286;2023-04-08T05:53:31;100510.88;;;6.71;80.48
52855;BME280;38719;51.418;7.286;2023-04-08T05:55:59;100510.50;;;6.46;80.75
52855;BME280;38719;51.418;7.286;2023-04-08T05:58:26;100515.72;;;6.93;81.80
52855;BME280;38719;51.418;7.286;2023-04-08T06:00:55;100509.06;;;7.16;79.71
52855;BME280;38719;51.418;7.286;2023-04-08T06:03:23;100516.97;;;7.17;79.66
52855;BME280;38719;51.418;7.286;2023-04-08T06:05:50;100519.84;;;7.06;79.81
52855;BME280;38719;51.418;7.286;2023-04-08T06:08:18;100522.47;;;7.08;79.38
52855;BME280;38719;51.418;7.286;2023-04-08T06:10:49;100530.84;;;6.86;79.92
52855;BME280;38719;51.418;7.286;2023-04-08T06:13:17;100533.34;;;6.96;80.17
52855;BME280;38719;51.418;7.286;2023-04-08T06:15:46;100533.28;;;6.97;80.95
52855;BME280;38719;51.418;7.286;2023-04-08T06:18:16;100531.03;;;6.78;81.59
52855;BME280;38719;51.418;7.286;2023-04-08T06:20:44;100528.13;;;6.91;81.36
52855;BME280;38719;51.418;7.286;2023-04-08T06:23:11;100528.22;;;7.27;80.92
52855;BME280;38719;51.418;7.286;2023-04-08T06:25:39;100540.09;;;7.50;80.87
52855;BME280;38719;51.418;7.286;2023-04-08T06:28:07;100535.00;;;7.40;79.55
52855;BME280;38719;51.418;7.286;2023-04-08T06:30:34;100538.47;;;7.44;79.70
52855;BME280;38719;51.418;7.286;2023-04-08T06:33:02;100541.91;;;7.48;79.64
52855;BME280;38719;51.418;7.286;2023-04-08T06:35:31;100540.09;;;7.50;79.45
52855;BME280;38719;51.418;7.286;2023-04-08T06:37:58;100544.41;;;7.54;80.30
52855;BME280;38719;51.418;7.286;2023-04-08T06:40:26;100540.63;;;7.64;79.68
52855;BME280;38719;51.418;7.286;2023-04-08T06:42:53;100546.19;;;7.53;80.33
52855;BME280;38719;51.418;7.286;2023-04-08T06:45:21;100546.59;;;7.36;80.63
52855;BME280;38719;51.418;7.286;2023-04-08T06:47:48;100551.66;;;7.46;81.95
52855;BME280;38719;51.418;7.286;2023-04-08T06:50:16;100559.66;;;7.44;80.61
52855;BME280;38719;51.418;7.286;2023-04-08T06:52:45;100561.41;;;7.43;80.67
52855;BME280;38719;51.418;7.286;2023-04-08T06:55:12;100569.00;;;7.61;81.75
52855;BME280;38719;51.418;7.286;2023-04-08T06:57:40;100572.03;;;7.83;81.74
52855;BME280;38719;51.418;7.286;2023-04-08T07:00:08;100580.78;;;7.86;81.02
52855;BME280;38719;51.418;7.286;2023-04-08T07:02:36;100575.66;;;7.79;79.93
52855;BME280;38719;51.418;7.286;2023-04-08T07:05:05;100580.44;;;8.00;80.71
52855;BME280;38719;51.418;7.286;2023-04-08T07:07:33;100582.44;;;7.90;79.52
52855;BME280;38719;51.418;7.286;2023-04-08T07:10:02;100584.28;;;7.88;80.90
52855;BME280;38719;51.418;7.286;2023-04-08T07:12:29;100586.66;;;7.99;80.91
52855;BME280;38719;51.418;7.286;2023-04-08T07:14:57;100587.78;;;7.89;80.81
52855;BME280;38719;51.418;7.286;2023-04-08T07:17:24;100584.69;;;8.07;80.07
52855;BME280;38719;51.418;7.286;2023-04-08T07:19:51;100586.34;;;8.13;80.64
52855;BME280;38719;51.418;7.286;2023-04-08T07:22:19;100580.13;;;8.13;79.90
52855;BME280;38719;51.418;7.286;2023-04-08T07:24:46;100586.13;;;7.85;80.11
52855;BME280;38719;51.418;7.286;2023-04-08T07:27:16;100591.34;;;7.88;79.78
52855;BME280;38719;51.418;7.286;2023-04-08T07:29:44;100584.00;;;7.99;81.16
52855;BME280;38719;51.418;7.286;2023-04-08T07:32:13;100590.78;;;7.75;80.17
52855;BME280;38719;51.418;7.286;2023-04-08T07:34:41;100591.63;;;7.75;81.81
52855;BME280;38719;51.418;7.286;2023-04-08T07:37:09;100583.63;;;7.79;81.11
52855;BME280;38719;51.418;7.286;2023-04-08T07:39:36;100586.78;;;7.93;82.25
52855;BME280;38719;51.418;7.286;2023-04-08T07:42:03;100589.03;;;8.10;80.57
52855;BME280;38719;51.418;7.286;2023-04-08T07:44:32;100592.53;;;8.12;79.96
52855;BME280;38719;51.418;7.286;2023-04-08T07:47:00;100593.06;;;8.27;79.46
52855;BME280;38719;51.418;7.286;2023-04-08T07:49:27;100604.44;;;8.32;79.72
52855;BME280;38719;51.418;7.286;2023-04-08T07:51:55;100606.97;;;8.36;79.79
52855;BME280;38719;51.418;7.286;2023-04-08T07:54:22;100604.78;;;8.54;79.86
52855;BME280;38719;51.418;7.286;2023-04-08T07:56:50;100610.19;;;8.84;79.75
52855;BME280;38719;51.418;7.286;2023-04-08T07:59:17;100610.53;;;9.03;78.92
52855;BME280;38719;51.418;7.286;2023-04-08T08:01:46;100603.28;;;9.10;77.48
52855;BME280;38719;51.418;7.286;2023-04-08T08:04:14;100600.81;;;9.03;76.57
52855;BME280;38719;51.418;7.286;2023-04-08T08:06:41;100598.81;;;8.44;78.48
52855;BME280;38719;51.418;7.286;2023-04-08T08:09:09;100609.91;;;8.24;79.26
52855;BME280;38719;51.418;7.286;2023-04-08T08:11:36;100616.72;;;8.36;79.70
52855;BME280;38719;51.418;7.286;2023-04-08T08:14:04;100624.06;;;8.25;79.54
52855;BME280;38719;51.418;7.286;2023-04-08T08:16:31;100628.34;;;8.30;79.72
52855;BME280;38719;51.418;7.286;2023-04-08T08:19:00;100631.34;;;8.52;78.83
52855;BME280;38719;51.418;7.286;2023-04-08T08:21:29;100637.59;;;8.51;79.14
52855;BME280;38719;51.418;7.286;2023-04-08T08:23:57;100640.53;;;8.74;78.36
52855;BME280;38719;51.418;7.286;2023-04-08T08:26:24;100636.13;;;9.07;77.74
52855;BME280;38719;51.418;7.286;2023-04-08T08:28:52;100643.75;;;8.86;78.90
52855;BME280;38719;51.418;7.286;2023-04-08T08:31:19;100651.28;;;9.03;77.80
52855;BME280;38719;51.418;7.286;2023-04-08T08:33:47;100644.16;;;9.04;77.89
52855;BME280;38719;51.418;7.286;2023-04-08T08:36:16;100648.63;;;9.02;77.50
52855;BME280;38719;51.418;7.286;2023-04-08T08:38:44;100647.63;;;9.08;77.02
52855;BME280;38719;51.418;7.286;2023-04-08T08:41:11;100648.78;;;9.60;75.93
52855;BME280;38719;51.418;7.286;2023-04-08T08:43:39;100656.16;;;9.50;74.27
52855;BME280;38719;51.418;7.286;2023-04-08T08:46:09;100648.03;;;9.55;74.84
52855;BME280;38719;51.418;7.286;2023-04-08T08:48:37;100649.50;;;9.65;73.22
52855;BME280;38719;51.418;7.286;2023-04-08T08:51:07;100644.81;;;9.74;73.02
52855;BME280;38719;51.418;7.286;2023-04-08T08:53:36;100654.66;;;10.00;72.00
52855;BME280;38719;51.418;7.286;2023-04-08T08:56:07;100651.69;;;9.81;72.49
52855;BME280;38719;51.418;7.286;2023-04-08T08:58:38;100656.69;;;10.20;73.25
52855;BME280;38719;51.418;7.286;2023-04-08T09:01:31;100670.19;;;10.14;72.39
52855;BME280;38719;51.418;7.286;2023-04-08T09:04:07;100681.00;;;10.38;71.47
52855;BME280;38719;51.418;7.286;2023-04-08T09:06:35;100676.50;;;10.40;70.93
52855;BME280;38719;51.418;7.286;2023-04-08T09:09:04;100674.56;;;10.45;71.05
52855;BME280;38719;51.418;7.286;2023-04-08T09:11:36;100670.75;;;10.52;69.88
52855;BME280;38719;51.418;7.286;2023-04-08T09:14:05;100667.19;;;10.53;69.35
52855;BME280;38719;51.418;7.286;2023-04-08T09:16:43;100657.31;;;10.82;69.90
52855;BME280;38719;51.418;7.286;2023-04-08T09:19:11;100651.00;;;11.10;68.67
52855;BME280;38719;51.418;7.286;2023-04-08T09:21:38;100662.31;;;10.66;66.92
52855;BME280;38719;51.418;7.286;2023-04-08T09:24:08;100656.28;;;10.86;67.49
52855;BME280;38719;51.418;7.286;2023-04-08T09:26:36;100666.16;;;10.84;66.94
52855;BME280;38719;51.418;7.286;2023-04-08T09:29:05;100668.13;;;10.51;68.11
52855;BME280;38719;51.418;7.286;2023-04-08T09:31:53;100672.25;;;10.61;67.37
52855;BME280;38719;51.418;7.286;2023-04-08T09:34:21;100669.03;;;10.78;67.21
52855;BME280;38719;51.418;7.286;2023-04-08T09:36:50;100672.88;;;10.69;67.40
52855;BME280;38719;51.418;7.286;2023-04-08T09:39:19;100678.84;;;10.49;66.38
52855;BME280;38719;51.418;7.286;2023-04-08T09:41:48;100668.69;;;10.60;67.10
52855;BME280;38719;51.418;7.286;2023-04-08T09:44:17;100677.06;;;10.21;66.81
52855;BME280;38719;51.418;7.286;2023-04-08T09:46:55;100675.31;;;10.20;68.09
52855;BME280;38719;51.418;7.286;2023-04-08T09:49:26;100679.00;;;10.16;67.14
52855;BME280;38719;51.418;7.286;2023-04-08T09:51:58;100680.59;;;10.50;68.48
52855;BME280;38719;51.418;7.286;2023-04-08T09:54:37;100678.91;;;10.47;67.97
52855;BME280;38719;51.418;7.286;2023-04-08T09:57:09;100681.50;;;10.49;67.55
52855;BME280;38719;51.418;7.286;2023-04-08T09:59:44;100678.63;;;10.55;68.79
52855;BME280;38719;51.418;7.286;2023-04-08T10:02:19;100683.00;;;10.58;67.61
52855;BME280;38719;51.418;7.286;2023-04-08T10:04:51;100685.78;;;10.55;67.80
52855;BME280;38719;51.418;7.286;2023-04-08T10:07:19;100685.44;;;10.36;68.95
52855;BME280;38719;51.418;7.286;2023-04-08T10:09:49;100690.78;;;10.36;69.29
52855;BME280;38719;51.418;7.286;2023-04-08T10:12:18;100691.38;;;10.45;68.58
52855;BME280;38719;51.418;7.286;2023-04-08T10:15:20;100685.47;;;10.07;67.87
52855;BME280;38719;51.418;7.286;2023-04-08T10:17:48;100690.97;;;10.01;69.70
52855;BME280;38719;51.418;7.286;2023-04-08T10:20:40;100695.81;;;9.88;68.71
52855;BME280;38719;51.418;7.286;2023-04-08T10:23:09;100696.84;;;10.12;69.27
52855;BME280;38719;51.418;7.286;2023-04-08T10:25:40;100695.91;;;10.13;69.46
52855;BME280;38719;51.418;7.286;2023-04-08T10:28:29;100688.56;;;9.93;69.40
52855;BME280;38719;51.418;7.286;2023-04-08T10:30:57;100693.88;;;9.93;68.29
52855;BME280;38719;51.418;7.286;2023-04-08T10:33:30;100686.44;;;10.05;68.71
52855;BME280;38719;51.418;7.286;2023-04-08T10:36:07;100686.50;;;9.73;69.64
52855;BME280;38719;51.418;7.286;2023-04-08T10:38:36;100689.75;;;9.83;69.75
52855;BME280;38719;51.418;7.286;2023-04-08T10:41:05;100695.91;;;9.85;68.87
52855;BME280;38719;51.418;7.286;2023-04-08T10:43:33;100684.63;;;9.77;68.88
52855;BME280;38719;51.418;7.286;2023-04-08T10:46:02;100690.25;;;9.96;69.06
52855;BME280;38719;51.418;7.286;2023-04-08T10:48:30;100694.75;;;9.94;68.37
52855;BME280;38719;51.418;7.286;2023-04-08T10:50:59;100690.84;;;10.06;67.72
52855;BME280;38719;51.418;7.286;2023-04-08T10:53:27;100686.75;;;10.24;67.94
52855;BME280;38719;51.418;7.286;2023-04-08T10:56:03;100682.59;;;10.15;66.80
52855;BME280;38719;51.418;7.286;2023-04-08T10:58:32;100686.47;;;10.31;66.76
52855;BME280;38719;51.418;7.286;2023-04-08T11:01:04;100683.72;;;10.63;67.11
52855;BME280;38719;51.418;7.286;2023-04-08T11:03:33;100688.50;;;10.53;66.46
52855;BME280;38719;51.418;7.286;2023-04-08T11:06:01;100677.63;;;10.59;65.76
52855;BME280;38719;51.418;7.286;2023-04-08T11:08:29;100686.69;;;10.54;65.97
52855;BME280;38719;51.418;7.286;2023-04-08T11:10:57;100681.16;;;10.87;66.14
52855;BME280;38719;51.418;7.286;2023-04-08T11:13:26;100674.84;;;10.89;65.44
52855;BME280;38719;51.418;7.286;2023-04-08T11:15:57;100671.78;;;11.25;64.19
52855;BME280;38719;51.418;7.286;2023-04-08T11:18:26;100676.25;;;11.25;64.84
52855;BME280;38719;51.418;7.286;2023-04-08T11:20:53;100671.44;;;11.35;64.18
52855;BME280;38719;51.418;7.286;2023-04-08T11:25:30;100675.28;;;11.27;63.58
52855;BME280;38719;51.418;7.286;2023-04-08T11:27:58;100678.19;;;11.20;63.59
52855;BME280;38719;51.418;7.286;2023-04-08T11:30:27;100678.91;;;11.25;64.50
52855;BME280;38719;51.418;7.286;2023-04-08T11:32:56;100680.53;;;11.76;63.35
52855;BME280;38719;51.418;7.286;2023-04-08T11:35:27;100675.28;;;11.75;63.00
52855;BME280;38719;51.418;7.286;2023-04-08T11:37:56;100675.28;;;11.75;63.66
52855;BME280;38719;51.418;7.286;2023-04-08T11:40:24;100683.38;;;11.96;62.15
52855;BME280;38719;51.418;7.286;2023-04-08T11:42:54;100667.50;;;11.69;63.22
52855;BME280;38719;51.418;7.286;2023-04-08T11:45:21;100670.97;;;11.47;63.36
52855;BME280;38719;51.418;7.286;2023-04-08T11:47:49;100670.38;;;11.15;63.60
52855;BME280;38719;51.418;7.286;2023-04-08T11:50:23;100666.69;;;11.43;63.48
52855;BME280;38719;51.418;7.286;2023-04-08T11:52:55;100673.66;;;11.71;63.71
52855;BME280;38719;51.418;7.286;2023-04-08T11:55:24;100676.47;;;11.90;62.93
52855;BME280;38719;51.418;7.286;2023-04-08T11:57:55;100673.00;;;12.12;61.74
52855;BME280;38719;51.418;7.286;2023-04-08T12:00:23;100673.13;;;12.31;61.46
52855;BME280;38719;51.418;7.286;2023-04-08T12:02:51;100683.47;;;12.38;61.42
52855;BME280;38719;51.418;7.286;2023-04-08T12:05:19;100680.13;;;12.33;60.64
52855;BME280;38719;51.418;7.286;2023-04-08T12:07:46;100680.31;;;12.51;60.40
52855;BME280;38719;51.418;7.286;2023-04-08T12:10:14;100678.41;;;11.86;62.41
52855;BME280;38719;51.418;7.286;2023-04-08T12:12:41;100683.28;;;11.99;61.64
52855;BME280;38719;51.418;7.286;2023-04-08T12:15:10;100682.63;;;11.92;62.68
52855;BME280;38719;51.418;7.286;2023-04-08T12:17:38;100679.72;;;12.22;62.04
52855;BME280;38719;51.418;7.286;2023-04-08T12:20:06;100679.13;;;12.36;60.35
52855;BME280;38719;51.418;7.286;2023-04-08T12:22:34;100679.78;;;12.20;61.28
52855;BME280;38719;51.418;7.286;2023-04-08T12:25:02;100679.56;;;12.25;61.69
52855;BME280;38719;51.418;7.286;2023-04-08T12:27:30;100686.41;;;12.54;61.35
52855;BME280;38719;51.418;7.286;2023-04-08T12:29:58;100682.47;;;12.63;60.03
52855;BME280;38719;51.418;7.286;2023-04-08T12:32:27;100685.66;;;12.29;61.43
52855;BME280;38719;51.418;7.286;2023-04-08T12:34:55;100685.97;;;12.43;62.37
52855;BME280;38719;51.418;7.286;2023-04-08T12:37:23;100690.56;;;12.17;61.86
52855;BME280;38719;51.418;7.286;2023-04-08T12:39:50;100684.31;;;12.18;61.93
52855;BME280;38719;51.418;7.286;2023-04-08T12:42:18;100679.09;;;12.15;61.54
52855;BME280;38719;51.418;7.286;2023-04-08T12:44:45;100687.91;;;12.17;61.54
52855;BME280;38719;51.418;7.286;2023-04-08T12:47:13;100684.97;;;12.23;61.10
52855;BME280;38719;51.418;7.286;2023-04-08T12:49:42;100682.56;;;11.93;62.81
52855;BME280;38719;51.418;7.286;2023-04-08T12:52:15;100687.78;;;11.98;63.55
52855;BME280;38719;51.418;7.286;2023-04-08T12:54:44;100690.53;;;11.71;63.88
52855;BME280;38719;51.418;7.286;2023-04-08T12:57:11;100681.47;;;11.75;63.39
52855;BME280;38719;51.418;7.286;2023-04-08T12:59:39;100684.34;;;11.71;64.02
52855;BME280;38719;51.418;7.286;2023-04-08T13:02:06;100687.47;;;11.82;63.98
52855;BME280;38719;51.418;7.286;2023-04-08T13:04:34;100685.63;;;12.08;63.90
52855;BME280;38719;51.418;7.286;2023-04-08T13:07:02;100681.38;;;12.02;63.10
52855;BME280;38719;51.418;7.286;2023-04-08T13:09:30;100683.38;;;11.96;63.56